﻿<?xml version="1.0" encoding="UTF-8" standalone="no"?>
<gpx xmlns="http://www.topografix.com/GPX/1/1" xmlns:gpxtpx="http://www.garmin.com/xmlschemas/TrackPointExtension/v1" xmlns:xsi="http://www.w3.org/2001/XMLSchema-instance" creator="Hribi.net" version="1.1" xsi:schemaLocation="http://www.topografix.com/GPX/1/1 http://www.topografix.com/GPX/1/1/gpx.xsd http://www.garmin.com/xmlschemas/TrackPointExtension/v1 http://www.garmin.com/xmlschemas/TrackPointExtensionv1.xsd">
  <metadata>
    <name>GPS sled</name>
    <desc>www.hribi.net</desc>
    <author>
      <name>hribi.net</name>
    </author>
    <link href="http://www.hribi.net">
      <text>Hribi.net</text>
    </link>
  </metadata>
  <trk>
    <trkseg>
      <trkpt lat="46.4699" lon="13.831">
        <ele>992.124023437499</ele>
        <time>2004-07-04T12:10:23Z</time>
      </trkpt>
      <trkpt lat="46.469633" lon="13.831417">
        <ele>992.124023437499</ele>
        <time>2004-07-04T12:06:59Z</time>
      </trkpt>
      <trkpt lat="46.46955" lon="13.83195">
        <ele>992.124023437499</ele>
        <time>2004-07-04T12:06:02Z</time>
      </trkpt>
      <trkpt lat="46.469033" lon="13.831967">
        <ele>992.124023437499</ele>
        <time>2004-07-04T12:04:46Z</time>
      </trkpt>
      <trkpt lat="46.468233" lon="13.8324">
        <ele>992.124023437499</ele>
        <time>2004-07-04T11:56:11Z</time>
      </trkpt>
      <trkpt lat="46.46685" lon="13.833067">
        <ele>992.124023437499</ele>
        <time>2004-07-04T11:54:40Z</time>
      </trkpt>
      <trkpt lat="46.466667" lon="13.833733">
        <ele>992.124023437499</ele>
        <time>2004-07-04T11:53:14Z</time>
      </trkpt>
      <trkpt lat="46.466417" lon="13.834633">
        <ele>992.124023437499</ele>
        <time>2004-07-04T11:51:48Z</time>
      </trkpt>
      <trkpt lat="46.4668" lon="13.835033">
        <ele>992.124023437499</ele>
        <time>2004-07-04T11:51:02Z</time>
      </trkpt>
      <trkpt lat="46.467417" lon="13.835717">
        <ele>992.124023437499</ele>
        <time>2004-07-04T11:48:42Z</time>
      </trkpt>
      <trkpt lat="46.468683" lon="13.838433">
        <ele>992.124023437499</ele>
        <time>2004-07-04T11:42:30Z</time>
      </trkpt>
      <trkpt lat="46.468967" lon="13.839">
        <ele>997.000793457032</ele>
        <time>2004-07-04T11:40:31Z</time>
      </trkpt>
      <trkpt lat="46.469267" lon="13.839483">
        <ele>997.000793457032</ele>
        <time>2004-07-04T11:39:40Z</time>
      </trkpt>
      <trkpt lat="46.469367" lon="13.84015">
        <ele>1032.96716308594</ele>
        <time>2004-07-04T11:37:39Z</time>
      </trkpt>
      <trkpt lat="46.469767" lon="13.840367">
        <ele>1032.96716308594</ele>
        <time>2004-07-04T11:36:52Z</time>
      </trkpt>
      <trkpt lat="46.46985" lon="13.841067">
        <ele>1025.95678710937</ele>
        <time>2004-07-04T11:34:11Z</time>
      </trkpt>
      <trkpt lat="46.470017" lon="13.8418">
        <ele>1032.96716308594</ele>
        <time>2004-07-04T11:32:53Z</time>
      </trkpt>
      <trkpt lat="46.470083" lon="13.842533">
        <ele>1039.06323242187</ele>
        <time>2004-07-04T11:31:36Z</time>
      </trkpt>
      <trkpt lat="46.470117" lon="13.843383">
        <ele>1029.00476074219</ele>
        <time>2004-07-04T11:30:35Z</time>
      </trkpt>
      <trkpt lat="46.470217" lon="13.844317">
        <ele>1014.98400878906</ele>
        <time>2004-07-04T11:29:15Z</time>
      </trkpt>
      <trkpt lat="46.47035" lon="13.845317">
        <ele>907.08477783203</ele>
        <time>2004-07-04T11:27:44Z</time>
      </trkpt>
      <trkpt lat="46.470867" lon="13.846167">
        <ele>634.898376464844</ele>
        <time>2004-07-04T11:22:41Z</time>
      </trkpt>
      <trkpt lat="46.471267" lon="13.846633">
        <ele>601.979980468751</ele>
        <time>2004-07-04T11:20:14Z</time>
      </trkpt>
      <trkpt lat="46.47165" lon="13.847217">
        <ele>626.059204101562</ele>
        <time>2004-07-04T11:19:01Z</time>
      </trkpt>
      <trkpt lat="46.472017" lon="13.847967">
        <ele>661.111206054687</ele>
        <time>2004-07-04T11:17:38Z</time>
      </trkpt>
      <trkpt lat="46.472067" lon="13.848833">
        <ele>713.841613769532</ele>
        <time>2004-07-04T11:16:13Z</time>
      </trkpt>
      <trkpt lat="46.471767" lon="13.849383">
        <ele>715.975219726561</ele>
        <time>2004-07-04T11:15:02Z</time>
      </trkpt>
      <trkpt lat="46.471483" lon="13.849967">
        <ele>700.125610351563</ele>
        <time>2004-07-04T11:13:13Z</time>
      </trkpt>
      <trkpt lat="46.4712" lon="13.850617">
        <ele>762</ele>
        <time>2004-07-04T11:10:54Z</time>
      </trkpt>
      <trkpt lat="46.470867" lon="13.850983">
        <ele>837.895202636718</ele>
        <time>2004-07-04T11:08:33Z</time>
      </trkpt>
      <trkpt lat="46.470517" lon="13.8512">
        <ele>833.01837158203</ele>
        <time>2004-07-04T11:05:19Z</time>
      </trkpt>
      <trkpt lat="46.470217" lon="13.851733">
        <ele>851.001586914061</ele>
        <time>2004-07-04T11:04:00Z</time>
      </trkpt>
      <trkpt lat="46.469917" lon="13.8521">
        <ele>858.012023925782</ele>
        <time>2004-07-04T11:02:44Z</time>
      </trkpt>
      <trkpt lat="46.469817" lon="13.852667">
        <ele>889.101623535156</ele>
        <time>2004-07-04T11:01:30Z</time>
      </trkpt>
      <trkpt lat="46.469733" lon="13.853783">
        <ele>982.979980468751</ele>
        <time>2004-07-04T10:59:46Z</time>
      </trkpt>
      <trkpt lat="46.46955" lon="13.854483">
        <ele>1014.98400878906</ele>
        <time>2004-07-04T10:58:21Z</time>
      </trkpt>
      <trkpt lat="46.469467" lon="13.855283">
        <ele>1039.06323242187</ele>
        <time>2004-07-04T10:56:25Z</time>
      </trkpt>
      <trkpt lat="46.469433" lon="13.856">
        <ele>1046.07360839844</ele>
        <time>2004-07-04T10:50:51Z</time>
      </trkpt>
      <trkpt lat="46.469633" lon="13.856467">
        <ele>1061.0087890625</ele>
        <time>2004-07-04T10:47:21Z</time>
      </trkpt>
      <trkpt lat="46.469233" lon="13.857283">
        <ele>1040.89196777344</ele>
        <time>2004-07-04T10:45:37Z</time>
      </trkpt>
      <trkpt lat="46.468917" lon="13.85775">
        <ele>1028.09045410156</ele>
        <time>2004-07-04T10:44:39Z</time>
      </trkpt>
      <trkpt lat="46.468467" lon="13.85815">
        <ele>1017.11761474609</ele>
        <time>2004-07-04T10:43:13Z</time>
      </trkpt>
      <trkpt lat="46.467333" lon="13.858733">
        <ele>1033.88159179688</ele>
        <time>2004-07-04T10:40:39Z</time>
      </trkpt>
      <trkpt lat="46.46615" lon="13.85935">
        <ele>1033.88159179688</ele>
        <time>2004-07-04T10:37:42Z</time>
      </trkpt>
      <trkpt lat="46.4656867980957" lon="13.8602066040039">
        <ele>1196.03515625</ele>
        <time>2004-07-04T10:30:45Z</time>
      </trkpt>
      <trkpt lat="46.4652442932129" lon="13.8604326248169">
        <ele>1196.03515625</ele>
        <time>2004-07-04T10:29:45Z</time>
      </trkpt>
      <trkpt lat="46.464433" lon="13.860867">
        <ele>1196.03515625</ele>
        <time>2004-07-04T10:26:40Z</time>
      </trkpt>
      <trkpt lat="46.4639" lon="13.8613">
        <ele>1196.94958496094</ele>
        <time>2004-07-04T10:22:19Z</time>
      </trkpt>
      <trkpt lat="46.463567" lon="13.860967">
        <ele>1196.03515625</ele>
        <time>2004-07-04T10:19:05Z</time>
      </trkpt>
      <trkpt lat="46.4632" lon="13.86125">
        <ele>1200.91198730469</ele>
        <time>2004-07-04T10:16:09Z</time>
      </trkpt>
      <trkpt lat="46.46275" lon="13.861533">
        <ele>1181.09997558594</ele>
        <time>2004-07-04T10:10:57Z</time>
      </trkpt>
      <trkpt lat="46.462983" lon="13.862083">
        <ele>1178.96643066406</ele>
        <time>2004-07-04T10:09:26Z</time>
      </trkpt>
    </trkseg>
  </trk>
</gpx>
